createdAt,value
2018-04-01T00:01:32.548Z,12.25
2018-04-01T00:03:58.669Z,12.10
2018-04-01T00:06:24.988Z,11.96
2018-04-01T00:08:51.182Z,11.83
2018-04-01T00:11:17.313Z,11.74
2018-04-01T00:13:43.481Z,11.80
2018-04-01T00:16:09.742Z,12.11
2018-04-01T00:18:35.898Z,12.01
2018-04-01T00:21:02.058Z,11.86
2018-04-01T00:23:28.263Z,11.89
2018-04-01T00:25:54.384Z,11.58
2018-04-01T00:28:20.506Z,11.86
2018-04-01T00:30:46.683Z,11.94
2018-04-01T00:33:12.779Z,11.52
2018-04-01T00:35:38.875Z,11.56
2018-04-01T00:38:05.114Z,11.41
2018-04-01T00:40:31.318Z,11.43
2018-04-01T00:42:57.707Z,11.39
2018-04-01T00:45:23.977Z,11.57
2018-04-01T00:47:50.118Z,11.32
2018-04-01T00:50:16.284Z,11.29
2018-04-01T00:52:42.558Z,11.26
2018-04-01T00:55:08.695Z,11.26
2018-04-01T00:57:34.790Z,11.26
2018-04-01T01:00:01.107Z,11.25
2018-04-01T01:02:27.244Z,11.14
2018-04-01T01:04:53.364Z,11.23
2018-04-01T01:07:19.647Z,11.18
2018-04-01T01:09:45.788Z,11.30
2018-04-01T01:12:11.967Z,11.08
2018-04-01T01:14:38.163Z,11.11
2018-04-01T01:17:04.332Z,11.22
2018-04-01T01:19:30.506Z,11.59
2018-04-01T01:21:56.700Z,11.45
2018-04-01T01:24:22.842Z,11.40
2018-04-01T01:26:49.082Z,11.34
2018-04-01T01:29:15.285Z,11.27
2018-04-01T01:31:41.439Z,11.37
2018-04-01T01:34:07.575Z,11.29
2018-04-01T01:36:37.494Z,11.22
2018-04-01T01:39:03.617Z,11.57
2018-04-01T01:41:29.800Z,11.45
2018-04-01T01:43:55.970Z,11.86
2018-04-01T01:46:22.251Z,11.89
2018-04-01T01:48:48.402Z,11.74
2018-04-01T01:51:14.529Z,11.78
2018-04-01T01:53:41.331Z,11.82
2018-04-01T01:56:07.526Z,11.76
2018-04-01T01:58:33.641Z,11.71
2018-04-01T02:00:59.811Z,11.88
2018-04-01T02:03:25.977Z,11.97
2018-04-01T02:05:52.108Z,11.89
2018-04-01T02:08:18.320Z,11.99
2018-04-01T02:10:44.415Z,11.99
2018-04-01T02:13:10.656Z,11.83
2018-04-01T02:15:36.801Z,11.84
2018-04-01T02:18:02.964Z,11.87
2018-04-01T02:20:29.103Z,11.84
2018-04-01T02:22:55.220Z,11.72
2018-04-01T02:25:21.360Z,11.71
2018-04-01T02:27:47.573Z,11.40
2018-04-01T02:30:13.675Z,11.63
2018-04-01T02:32:39.799Z,11.86
2018-04-01T02:35:06.487Z,11.82
2018-04-01T02:37:32.693Z,11.75
2018-04-01T02:39:58.837Z,11.64
2018-04-01T02:42:25.039Z,11.46
2018-04-01T02:44:51.161Z,11.50
2018-04-01T02:47:17.343Z,11.42
2018-04-01T02:49:43.576Z,11.19
2018-04-01T02:52:09.762Z,11.10
2018-04-01T02:54:35.930Z,10.99
2018-04-01T02:57:02.377Z,10.81
2018-04-01T02:59:28.509Z,10.62
2018-04-01T03:01:54.638Z,10.50
2018-04-01T03:04:20.800Z,10.58
2018-04-01T03:06:47.099Z,10.52
2018-04-01T03:09:13.265Z,10.45
2018-04-01T03:11:39.414Z,10.36
2018-04-01T03:14:05.498Z,10.27
2018-04-01T03:16:31.593Z,10.09
2018-04-01T03:18:57.771Z,10.20
2018-04-01T03:21:23.987Z,10.20
2018-04-01T03:23:51.053Z,10.04
2018-04-01T03:26:17.692Z,10.11
2018-04-01T03:28:43.765Z,10.12
2018-04-01T03:31:09.860Z,10.08
2018-04-01T03:33:36.000Z,10.09
2018-04-01T03:36:02.309Z,9.70
2018-04-01T03:38:29.395Z,9.37
2018-04-01T03:40:55.683Z,8.92
2018-04-01T03:43:21.797Z,8.79
2018-04-01T03:45:47.893Z,8.77
2018-04-01T03:48:14.038Z,8.66
2018-04-01T03:50:40.283Z,8.61
2018-04-01T03:53:06.469Z,8.55
2018-04-01T03:55:32.699Z,8.58
2018-04-01T03:57:58.792Z,8.53
2018-04-01T04:00:25.054Z,8.56
2018-04-01T04:02:51.327Z,8.70
2018-04-01T04:05:17.519Z,8.56
2018-04-01T04:07:43.803Z,8.39
2018-04-01T04:10:10.011Z,8.43
2018-04-01T04:12:36.137Z,8.28
2018-04-01T04:15:02.319Z,8.21
2018-04-01T04:17:28.601Z,8.14
2018-04-01T04:19:54.867Z,7.98
2018-04-01T04:22:20.970Z,7.87
2018-04-01T04:24:47.145Z,7.77
2018-04-01T04:27:13.402Z,7.55
2018-04-01T04:29:39.574Z,7.42
2018-04-01T04:32:06.008Z,7.34
2018-04-01T04:34:32.338Z,7.27
2018-04-01T04:36:59.388Z,7.30
2018-04-01T04:39:25.544Z,7.46
2018-04-01T04:41:51.633Z,7.32
2018-04-01T04:44:23.276Z,7.60
2018-04-01T04:46:49.484Z,7.56
2018-04-01T04:49:15.711Z,7.48
2018-04-01T04:51:53.614Z,7.40
2018-04-01T04:54:19.774Z,7.36
2018-04-01T04:56:45.914Z,7.43
2018-04-01T04:59:12.138Z,7.32
2018-04-01T05:01:38.226Z,7.34
2018-04-01T05:04:04.831Z,7.30
2018-04-01T05:06:31.022Z,7.36
2018-04-01T05:08:57.106Z,7.30
2018-04-01T05:11:23.535Z,7.39
2018-04-01T05:13:50.302Z,7.45
2018-04-01T05:16:16.565Z,7.43
2018-04-01T05:18:43.175Z,7.50
2018-04-01T05:21:09.535Z,7.43
2018-04-01T05:23:36.077Z,7.57
2018-04-01T05:26:02.290Z,7.49
2018-04-01T05:28:28.731Z,7.61
2018-04-01T05:30:55.270Z,7.59
2018-04-01T05:33:21.915Z,7.55
2018-04-01T05:35:48.227Z,7.55
2018-04-01T05:38:14.567Z,7.60
2018-04-01T05:40:41.648Z,7.74
2018-04-01T05:43:09.697Z,9.44
2018-04-01T05:45:36.327Z,11.15
2018-04-01T05:48:04.084Z,11.17
2018-04-01T05:50:30.421Z,10.78
2018-04-01T05:52:56.540Z,9.95
2018-04-01T05:55:22.618Z,10.99
2018-04-01T05:57:48.823Z,11.65
2018-04-01T06:00:15.000Z,12.81
2018-04-01T06:02:41.235Z,12.98
2018-04-01T06:05:07.353Z,12.44
2018-04-01T06:07:33.737Z,12.18
2018-04-01T06:09:59.914Z,12.40
2018-04-01T06:12:26.142Z,11.98
2018-04-01T06:14:52.660Z,11.92
2018-04-01T06:17:18.929Z,12.40
2018-04-01T06:19:45.205Z,11.96
2018-04-01T06:22:11.375Z,12.32
2018-04-01T06:24:38.137Z,12.52
2018-04-01T06:27:04.383Z,12.37
2018-04-01T06:29:30.548Z,12.23
2018-04-01T06:31:56.751Z,12.55
2018-04-01T06:34:22.981Z,12.34
2018-04-01T06:36:49.172Z,12.32
2018-04-01T06:39:15.442Z,12.23
2018-04-01T06:41:41.684Z,12.47
2018-04-01T06:44:08.852Z,12.41
2018-04-01T06:46:35.095Z,13.14
2018-04-01T06:49:01.385Z,12.96
2018-04-01T06:51:27.631Z,12.85
2018-04-01T06:53:53.738Z,12.76
2018-04-01T06:56:19.906Z,13.24
2018-04-01T06:58:46.166Z,13.22
2018-04-01T07:01:12.529Z,13.10
2018-04-01T07:03:38.771Z,13.61
2018-04-01T07:06:05.621Z,13.24
2018-04-01T07:08:32.361Z,13.36
2018-04-01T07:10:58.673Z,12.91
2018-04-01T07:13:25.052Z,13.45
2018-04-01T07:15:51.536Z,13.66
2018-04-01T07:18:17.809Z,13.66
2018-04-01T07:20:44.004Z,14.10
2018-04-01T07:23:11.738Z,13.97
2018-04-01T07:25:38.230Z,14.44
2018-04-01T07:28:04.460Z,14.25
2018-04-01T07:30:30.695Z,14.30
2018-04-01T07:32:57.031Z,14.07
2018-04-01T07:35:23.295Z,14.84
2018-04-01T07:37:49.935Z,14.05
2018-04-01T07:40:16.458Z,15.33
2018-04-01T07:42:42.635Z,14.33
2018-04-01T07:45:09.386Z,14.00
2018-04-01T07:47:35.822Z,13.52
2018-04-01T07:50:02.080Z,13.61
2018-04-01T07:52:28.385Z,13.57
2018-04-01T07:54:54.591Z,12.98
2018-04-01T07:57:21.198Z,12.91
2018-04-01T07:59:47.617Z,12.91
2018-04-01T08:02:13.911Z,12.50
2018-04-01T08:04:41.053Z,12.34
2018-04-01T08:07:07.786Z,12.33
2018-04-01T08:09:34.140Z,12.46
2018-04-01T08:12:00.284Z,12.49
2018-04-01T08:14:26.458Z,12.78
2018-04-01T08:16:52.630Z,12.84
2018-04-01T08:19:19.114Z,13.17
2018-04-01T08:21:45.337Z,12.96
2018-04-01T08:24:11.876Z,13.28
2018-04-01T08:26:38.468Z,13.22
2018-04-01T08:29:05.056Z,13.25
2018-04-01T08:31:31.292Z,13.04
2018-04-01T08:33:57.429Z,13.24
2018-04-01T08:36:23.668Z,13.31
2018-04-01T08:38:49.968Z,13.45
2018-04-01T08:41:16.141Z,13.23
2018-04-01T08:43:42.651Z,13.19
2018-04-01T08:46:08.870Z,13.34
2018-04-01T08:48:35.311Z,13.19
2018-04-01T08:51:01.607Z,13.44
2018-04-01T08:53:27.831Z,13.21
2018-04-01T08:55:54.042Z,13.09
2018-04-01T08:58:20.352Z,13.14
2018-04-01T09:00:46.721Z,12.89
2018-04-01T09:03:12.860Z,12.85
2018-04-01T09:05:39.244Z,12.70
2018-04-01T09:08:05.769Z,12.83
2018-04-01T09:10:32.153Z,12.88
2018-04-01T09:12:58.507Z,12.77
2018-04-01T09:15:25.700Z,12.85
2018-04-01T09:17:52.123Z,12.88
2018-04-01T09:20:18.518Z,12.92
2018-04-01T09:22:44.807Z,13.19
2018-04-01T09:25:11.006Z,13.37
2018-04-01T09:27:37.453Z,13.34
2018-04-01T09:30:03.701Z,13.43
2018-04-01T09:32:30.048Z,13.44
2018-04-01T09:34:56.639Z,13.36
2018-04-01T09:37:23.085Z,13.17
2018-04-01T09:39:49.674Z,12.85
2018-04-01T09:42:16.089Z,12.89
2018-04-01T09:44:46.644Z,13.02
2018-04-01T09:47:13.383Z,13.42
2018-04-01T09:49:40.249Z,14.12
2018-04-01T09:52:09.491Z,14.08
2018-04-01T09:54:40.184Z,14.28
2018-04-01T09:57:06.627Z,14.33
2018-04-01T09:59:32.939Z,14.17
2018-04-01T10:01:59.923Z,13.98
2018-04-01T10:04:26.970Z,13.78
2018-04-01T10:06:55.401Z,13.57
2018-04-01T10:09:22.178Z,13.42
2018-04-01T10:11:48.764Z,13.42
2018-04-01T10:14:15.875Z,13.60
2018-04-01T10:16:42.749Z,14.55
2018-04-01T10:19:09.540Z,15.73
2018-04-01T10:21:36.076Z,15.83
2018-04-01T10:24:03.185Z,15.36
2018-04-01T10:26:30.212Z,15.09
2018-04-01T10:28:58.036Z,14.93
2018-04-01T10:31:25.390Z,14.66
2018-04-01T10:33:53.336Z,14.15
2018-04-01T10:36:20.476Z,13.93
2018-04-01T10:38:47.086Z,13.76
2018-04-01T10:41:13.588Z,13.85
2018-04-01T10:43:42.950Z,14.71
2018-04-01T10:46:09.678Z,15.50
2018-04-01T10:48:36.597Z,15.07
2018-04-01T10:51:03.776Z,14.73
2018-04-01T10:53:30.839Z,14.45
2018-04-01T10:55:58.921Z,14.35
2018-04-01T10:58:27.471Z,15.02
2018-04-01T11:01:18.532Z,15.12
2018-04-01T11:03:46.456Z,14.42
2018-04-01T11:06:16.045Z,14.31
2018-04-01T11:08:45.730Z,14.15
2018-04-01T11:11:14.331Z,14.16
2018-04-01T11:13:44.167Z,14.51
2018-04-01T11:16:11.498Z,14.79
2018-04-01T11:18:38.745Z,15.99
2018-04-01T11:21:05.466Z,16.25
2018-04-01T11:23:32.127Z,16.70
2018-04-01T11:25:59.400Z,17.62
2018-04-01T11:28:26.037Z,17.59
2018-04-01T11:30:52.378Z,17.45
2018-04-01T11:33:18.858Z,15.06
2018-04-01T11:35:48.001Z,13.61
2018-04-01T11:38:20.488Z,12.58
2018-04-01T11:40:48.201Z,11.81
2018-04-01T11:43:19.086Z,11.75
2018-04-01T11:45:46.231Z,11.62
2018-04-01T11:48:13.816Z,11.46
2018-04-01T11:50:47.174Z,11.16
2018-04-01T11:53:13.780Z,11.17
2018-04-01T11:55:46.682Z,11.04
2018-04-01T11:58:19.173Z,11.31
2018-04-01T12:00:51.342Z,11.14
2018-04-01T12:03:19.070Z,11.15
2018-04-01T12:05:45.682Z,10.99
2018-04-01T12:08:15.408Z,10.80
2018-04-01T12:10:46.373Z,10.77
2018-04-01T12:13:15.398Z,11.74
2018-04-01T12:15:44.654Z,11.91
2018-04-01T12:18:11.604Z,11.68
2018-04-01T12:20:38.474Z,11.88
2018-04-01T12:23:06.269Z,12.65
2018-04-01T12:25:33.479Z,13.06
2018-04-01T12:28:04.069Z,12.91
2018-04-01T12:30:31.385Z,13.08
2018-04-01T12:32:57.744Z,12.65
2018-04-01T12:35:24.222Z,12.43
2018-04-01T12:37:50.558Z,11.59
2018-04-01T12:40:17.041Z,11.03
2018-04-01T12:42:44.026Z,10.91
2018-04-01T12:45:12.997Z,10.71
2018-04-01T12:47:39.924Z,10.60
2018-04-01T12:50:06.632Z,10.87
2018-04-01T12:52:33.703Z,10.93
2018-04-01T12:55:00.006Z,10.96
2018-04-01T12:57:26.234Z,11.14
2018-04-01T12:59:54.473Z,11.07
2018-04-01T13:02:21.766Z,11.30
2018-04-01T13:04:48.179Z,11.53
2018-04-01T13:07:14.660Z,11.58
2018-04-01T13:09:41.465Z,11.62
2018-04-01T13:12:08.050Z,11.75
2018-04-01T13:14:34.668Z,11.93
2018-04-01T13:17:01.100Z,12.00
2018-04-01T13:19:27.842Z,11.87
2018-04-01T13:21:54.243Z,11.26
2018-04-01T13:24:20.523Z,11.00
2018-04-01T13:26:46.774Z,11.20
2018-04-01T13:29:13.286Z,11.30
2018-04-01T13:31:39.817Z,11.60
2018-04-01T13:34:06.316Z,11.97
2018-04-01T13:36:32.895Z,11.96
2018-04-01T13:38:59.508Z,11.93
2018-04-01T13:41:25.826Z,11.68
2018-04-01T13:43:52.128Z,11.69
2018-04-01T13:46:18.598Z,11.88
2018-04-01T13:48:44.990Z,12.15
2018-04-01T13:51:11.391Z,12.67
2018-04-01T13:53:37.682Z,12.83
2018-04-01T13:56:04.477Z,12.77
2018-04-01T13:58:30.999Z,12.75
2018-04-01T14:00:57.959Z,12.65
2018-04-01T14:03:24.321Z,12.70
2018-04-01T14:05:50.806Z,12.66
2018-04-01T14:08:17.349Z,12.78
2018-04-01T14:10:43.574Z,12.60
2018-04-01T14:13:09.871Z,12.56
2018-04-01T14:15:36.232Z,11.83
2018-04-01T14:18:02.553Z,10.90
2018-04-01T14:20:28.809Z,10.62
2018-04-01T14:22:55.105Z,10.38
2018-04-01T14:25:21.707Z,10.51
2018-04-01T14:27:49.100Z,10.61
2018-04-01T14:30:15.535Z,10.85
2018-04-01T14:32:41.796Z,11.00
2018-04-01T14:35:08.242Z,11.22
2018-04-01T14:37:34.447Z,11.47
2018-04-01T14:40:00.647Z,11.61
2018-04-01T14:42:26.937Z,11.73
2018-04-01T14:44:53.187Z,11.99
2018-04-01T14:47:20.174Z,12.05
2018-04-01T14:49:46.542Z,11.97
2018-04-01T14:52:12.808Z,11.95
2018-04-01T14:54:40.151Z,11.83
2018-04-01T14:57:06.789Z,11.69
2018-04-01T14:59:33.152Z,11.60
2018-04-01T15:01:59.516Z,11.68
2018-04-01T15:04:25.922Z,11.64
2018-04-01T15:06:53.471Z,11.24
2018-04-01T15:09:19.911Z,11.02
2018-04-01T15:11:46.374Z,10.99
2018-04-01T15:14:12.824Z,10.92
2018-04-01T15:16:39.011Z,10.75
2018-04-01T15:19:05.307Z,10.71
2018-04-01T15:21:31.770Z,10.70
2018-04-01T15:23:58.173Z,10.74
2018-04-01T15:26:24.472Z,10.73
2018-04-01T15:28:50.672Z,10.84
2018-04-01T15:31:16.913Z,10.70
2018-04-01T15:33:43.207Z,10.81
2018-04-01T15:36:09.652Z,10.62
2018-04-01T15:38:35.988Z,10.43
2018-04-01T15:41:03.667Z,10.28
2018-04-01T15:43:30.856Z,10.14
2018-04-01T15:45:57.412Z,10.06
2018-04-01T15:48:24.623Z,9.94
2018-04-01T15:50:51.920Z,9.79
2018-04-01T15:53:18.655Z,9.78
2018-04-01T15:55:46.949Z,9.61
2018-04-01T15:58:14.226Z,9.40
2018-04-01T16:00:40.937Z,9.34
2018-04-01T16:03:08.457Z,9.33
2018-04-01T16:05:35.808Z,9.26
2018-04-01T16:08:02.460Z,9.29
2018-04-01T16:10:29.478Z,9.17
2018-04-01T16:12:57.335Z,9.23
2018-04-01T16:15:25.680Z,9.12
2018-04-01T16:17:54.709Z,9.19
2018-04-01T16:20:21.393Z,9.05
2018-04-01T16:22:49.828Z,8.86
2018-04-01T16:25:16.536Z,8.97
2018-04-01T16:27:44.544Z,8.86
2018-04-01T16:30:11.271Z,8.95
2018-04-01T16:32:37.746Z,8.53
2018-04-01T16:35:04.388Z,8.23
2018-04-01T16:37:31.018Z,8.07
2018-04-01T16:39:57.463Z,7.81
2018-04-01T16:42:24.244Z,7.57
2018-04-01T16:44:50.819Z,7.36
2018-04-01T16:47:17.771Z,7.01
2018-04-01T16:49:44.762Z,6.55
2018-04-01T16:52:12.340Z,6.27
2018-04-01T16:54:39.066Z,6.31
2018-04-01T16:57:09.364Z,6.12
2018-04-01T16:59:36.145Z,5.91
2018-04-01T17:02:02.693Z,5.86
2018-04-01T17:04:29.079Z,5.86
2018-04-01T17:06:56.556Z,5.81
2018-04-01T17:09:23.587Z,5.74
2018-04-01T17:11:50.971Z,5.82
2018-04-01T17:14:17.409Z,5.74
2018-04-01T17:16:46.113Z,5.72
2018-04-01T17:19:12.430Z,5.66
2018-04-01T17:21:39.218Z,5.71
2018-04-01T17:24:05.794Z,5.80
2018-04-01T17:26:32.259Z,5.76
2018-04-01T17:28:59.030Z,5.74
2018-04-01T17:31:26.038Z,5.70
2018-04-01T17:33:53.892Z,5.83
2018-04-01T17:36:20.430Z,5.76
2018-04-01T17:38:47.832Z,5.72
2018-04-01T17:41:14.502Z,5.72
2018-04-01T17:43:41.477Z,5.63
2018-04-01T17:46:08.494Z,5.51
2018-04-01T17:48:34.945Z,5.61
2018-04-01T17:51:03.060Z,5.45
2018-04-01T17:53:29.545Z,5.57
2018-04-01T17:55:57.408Z,5.64
2018-04-01T17:58:23.684Z,5.42
2018-04-01T18:00:50.583Z,5.44
2018-04-01T18:03:17.578Z,5.60
2018-04-01T18:05:44.217Z,5.65
2018-04-01T18:08:11.280Z,5.66
2018-04-01T18:10:37.974Z,5.74
2018-04-01T18:13:04.537Z,5.73
2018-04-01T18:15:30.981Z,5.53
2018-04-01T18:17:57.877Z,5.47
2018-04-01T18:20:25.247Z,5.50
2018-04-01T18:22:51.845Z,5.47
2018-04-01T18:25:18.450Z,5.42
2018-04-01T18:27:44.872Z,5.39
2018-04-01T18:30:11.711Z,5.38
2018-04-01T18:32:38.466Z,5.38
2018-04-01T18:35:04.951Z,5.30
2018-04-01T18:37:32.298Z,5.24
2018-04-01T18:39:58.965Z,5.12
2018-04-01T18:42:25.575Z,5.04
2018-04-01T18:44:52.002Z,4.97
2018-04-01T18:47:18.287Z,4.96
2018-04-01T18:49:45.373Z,4.85
2018-04-01T18:52:12.793Z,4.80
2018-04-01T18:54:39.487Z,4.70
2018-04-01T18:57:05.834Z,4.70
2018-04-01T18:59:32.639Z,4.58
2018-04-01T19:01:59.020Z,4.43
2018-04-01T19:04:25.424Z,4.38
2018-04-01T19:06:51.687Z,4.15
2018-04-01T19:09:17.861Z,4.07
2018-04-01T19:11:44.284Z,3.98
2018-04-01T19:14:10.701Z,3.91
2018-04-01T19:16:49.450Z,3.86
2018-04-01T19:19:16.306Z,3.76
2018-04-01T19:21:42.831Z,3.72
2018-04-01T19:24:09.724Z,3.60
2018-04-01T19:26:36.892Z,3.50
2018-04-01T19:29:03.459Z,3.45
2018-04-01T19:31:31.250Z,3.44
2018-04-01T19:33:58.083Z,3.45
2018-04-01T19:36:25.523Z,3.44
2018-04-01T19:38:52.900Z,3.44
2018-04-01T19:41:19.791Z,3.41
2018-04-01T19:43:46.668Z,3.47
2018-04-01T19:46:13.317Z,3.54
2018-04-01T19:48:39.964Z,3.57
2018-04-01T19:51:07.033Z,3.64
2018-04-01T19:53:33.987Z,3.65
2018-04-01T19:56:00.601Z,3.63
2018-04-01T19:58:27.270Z,3.69
2018-04-01T20:00:54.243Z,3.67
2018-04-01T20:03:20.924Z,3.81
2018-04-01T20:05:47.965Z,3.88
2018-04-01T20:08:14.637Z,3.95
2018-04-01T20:10:41.339Z,3.91
2018-04-01T20:13:08.328Z,3.96
2018-04-01T20:15:36.077Z,3.94
2018-04-01T20:18:02.858Z,3.96
2018-04-01T20:20:29.360Z,4.05
2018-04-01T20:22:55.868Z,4.05
2018-04-01T20:25:24.299Z,4.04
2018-04-01T20:27:51.533Z,3.98
2018-04-01T20:30:18.136Z,4.00
2018-04-01T20:32:44.827Z,3.98
2018-04-01T20:35:12.986Z,3.86
2018-04-01T20:37:41.568Z,3.94
2018-04-01T20:40:08.883Z,3.97
2018-04-01T20:42:35.396Z,3.87
2018-04-01T20:45:01.914Z,3.91
2018-04-01T20:47:28.332Z,3.99
2018-04-01T20:49:55.179Z,3.99
2018-04-01T20:52:22.296Z,3.91
2018-04-01T20:54:49.554Z,3.83
2018-04-01T20:57:16.401Z,3.66
2018-04-01T20:59:42.931Z,3.54
2018-04-01T21:02:09.834Z,3.44
2018-04-01T21:04:36.720Z,3.51
2018-04-01T21:07:03.251Z,3.55
2018-04-01T21:09:29.852Z,3.59
2018-04-01T21:11:56.269Z,3.48
2018-04-01T21:14:22.793Z,3.43
2018-04-01T21:16:49.235Z,3.36
2018-04-01T21:19:15.772Z,3.32
2018-04-01T21:21:42.209Z,3.29
2018-04-01T21:24:08.702Z,3.33
2018-04-01T21:26:35.052Z,3.35
2018-04-01T21:29:01.487Z,3.37
2018-04-01T21:31:28.077Z,3.35
2018-04-01T21:33:54.604Z,3.32
2018-04-01T21:36:21.007Z,3.33
2018-04-01T21:38:47.464Z,3.17
2018-04-01T21:41:13.835Z,3.06
2018-04-01T21:43:40.250Z,3.00
2018-04-01T21:46:06.688Z,2.89
2018-04-01T21:48:33.273Z,2.79
2018-04-01T21:50:59.742Z,2.66
2018-04-01T21:53:26.188Z,2.54
2018-04-01T21:55:52.958Z,2.48
2018-04-01T21:58:19.497Z,2.43
2018-04-01T22:00:45.952Z,2.38
2018-04-01T22:03:12.673Z,2.47
2018-04-01T22:05:39.202Z,2.47
2018-04-01T22:08:05.551Z,2.42
2018-04-01T22:10:32.037Z,2.38
2018-04-01T22:12:58.482Z,2.31
2018-04-01T22:15:24.951Z,2.18
2018-04-01T22:17:51.427Z,1.98
2018-04-01T22:20:17.855Z,1.98
2018-04-01T22:22:56.569Z,1.92
2018-04-01T22:25:22.981Z,1.95
2018-04-01T22:27:49.354Z,1.89
2018-04-01T22:30:15.807Z,1.87
2018-04-01T22:32:42.182Z,1.83
2018-04-01T22:35:08.616Z,1.82
2018-04-01T22:37:35.028Z,1.78
2018-04-01T22:40:01.478Z,1.81
2018-04-01T22:42:27.917Z,1.86
2018-04-01T22:44:54.380Z,1.85
2018-04-01T22:47:21.091Z,1.78
2018-04-01T22:49:47.683Z,1.60
2018-04-01T22:52:14.121Z,1.60
2018-04-01T22:54:40.486Z,1.57
2018-04-01T22:57:06.932Z,1.43
2018-04-01T22:59:33.399Z,1.38
2018-04-01T23:01:59.782Z,1.31
2018-04-01T23:04:26.189Z,1.25
2018-04-01T23:06:52.781Z,1.29
2018-04-01T23:09:19.237Z,1.36
2018-04-01T23:11:46.324Z,1.24
2018-04-01T23:14:12.727Z,1.26
2018-04-01T23:16:39.096Z,1.42
2018-04-01T23:19:05.665Z,1.40
2018-04-01T23:21:32.042Z,1.39
2018-04-01T23:23:58.352Z,1.57
2018-04-01T23:26:24.789Z,1.71
2018-04-01T23:28:51.332Z,1.73
2018-04-01T23:31:17.676Z,1.66
2018-04-01T23:33:44.115Z,1.67
2018-04-01T23:36:10.543Z,1.73
2018-04-01T23:38:36.921Z,1.75
2018-04-01T23:41:03.250Z,1.77
2018-04-01T23:43:29.631Z,1.74
2018-04-01T23:45:56.037Z,1.74
2018-04-01T23:48:22.466Z,1.65
2018-04-01T23:50:48.985Z,1.64
2018-04-01T23:53:15.385Z,1.45
2018-04-01T23:55:41.772Z,1.38
2018-04-01T23:58:08.176Z,1.36
